Hedgesville, WV (25427)

5:10 PM EST on February 25, 2017 (GMT -0500)
Glengary | | Change Station

Elev 600 ft 39.38 °N, 78.17 °W | Updated 4 seconds ago

Mostly Cloudy
Mostly Cloudy
52.9 °F
Feels Like 52.9 °F
N
23.0
Wind Variable Wind from NNE
Gusts 27.0 mph

Today
High -- | Low -- °F
--% Chance of Precip.
Yesterday
High -- | Low -- °F
Precip. -- in
Pressure 29.60 in
Visibility 10.0 miles
Clouds Scattered Clouds 4800 ft
Overcast 9000 ft
Dew Point 39.0 °F
Humidity 59%
Rainfall 0.07 in
Snow Depth Not available.
6:50 AM 6:00 PM
Waning Crescent, 1% visible
METAR KMRB 252153Z AUTO 30016G22KT 260V320 10SM SCT048 OVC090 13/02 A2960 RMK AO2 PK WND 26029/2117 SLP022 T01280022 TSNO
Pressure 29.60 in
Visibility 10.0 miles
Clouds Scattered Clouds 4800 ft
Overcast 9000 ft
Dew Point 39.0 °F
Humidity 59%
Rainfall 0.07 in
Snow Depth Not available.
6:50 AM 6:00 PM
Waning Crescent, 1% visible
METAR KMRB 252153Z AUTO 30016G22KT 260V320 10SM SCT048 OVC090 13/02 A2960 RMK AO2 PK WND 26029/2117 SLP022 T01280022 TSNO

Get Your Daily Forecast Email!

Thanks for signing up!

Be on the lookout for a verification email in your inbox.

You'll start receiving the daily forecast at 8 AM.

×

10-Day Weather Forecast

Almanac

Astronomy

Feb. 25, 2017 Rise Set
Actual Time
Civil Twilight
Nautical Twilight
Astronomical Twilight
Moon
Length of Visible Light
Length of Day
Tomorrow will be .
, % of the Moon is Illuminated

Today's Extremes

State Highs State Lows

Community

WunderPhotos

Upload Photos

1,962,540 photos uploaded!

WunderBlog® & News

Nearby

Air Quality

  Air Quality AQ Index Pollutant
Not available.

Snow Depth

Station Depth Elevation

Earthquake Activity

City Distance Mag. Time & Date
Minimum magnitude displayed is 2.5.

Coastal Water Temperatures

Place Temperature

Stations

Nearby Weather Stations

Station Location Temp. Windchill Dew Point Humidity Wind Precip. Elev Updated Type
                   

Watches & Warnings

There are currently no watches in effect.